HTMG

Morogoro Airport

Morogoro, Tanzania
METAR HTMG 181900Z 06015KT 9999 FEW026 25/19 Q1014
Observed Flight Rules
Dec-18 @ 19:00 UTC (an hour ago) Visual Flight Rules
Wind Visibility Clouds
60° at 15 knots 10,000+ meters
  • Few at 2,600' AGL
Temperatures Readings
Current 25°C / 77°F
Dewpoint 19°C / 66°F
Humidity 69%
Altimeter 29.94" Hg
Pressure 1014 hPa
Elevation 526
METAR HTMG 181900Z 06015KT 9999 FEW026 25/19 Q1014
Observed Flight Rules
Dec-18 @ 19:00 UTC
(an hour ago)
VFR
Wind Visibility
60° at 15 knots 10,000+ meters
Clouds
  • Few at 2,600' AGL
Temperature Dewpoint
25°C / 77°F 19°C / 66°F
Humidity Altimeter Pressure
69% 29.94" Hg 1014 hPa